Time;durP1;ratioP1;P1;durP2;ratioP2;P2;SDS_P1;SDS_P2;PMS_P1;PMS_P2;Temp;Humidity;BMP_temperature;BMP_pressure;BME280_temperature;BME280_humidity;BME280_pressure;Samples;Min_cycle;Max_cycle;Signal;HPM_P1;HPM_P2
2022/04/02 00:01:15;;;;;;;5.47;1.83;;;3.00;98.70;;;;;;4977666;28;20046;-53
2022/04/02 00:03:42;;;;;;;7.72;1.30;;;3.00;98.90;;;;;;4988062;28;20057;-51
2022/04/02 00:06:09;;;;;;;5.57;2.75;;;3.00;98.70;;;;;;4985486;28;20050;-53
2022/04/02 00:08:35;;;;;;;11.88;1.98;;;3.00;98.80;;;;;;4971013;28;20117;-52
2022/04/02 00:11:02;;;;;;;7.90;1.90;;;3.00;98.80;;;;;;4974919;28;20078;-55
2022/04/02 00:13:31;;;;;;;8.98;2.70;;;3.00;98.90;;;;;;4988469;28;20082;-55
2022/04/02 00:15:59;;;;;;;8.88;1.70;;;3.00;98.90;;;;;;4985618;28;20516;-54
2022/04/02 00:18:26;;;;;;;4.35;1.65;;;3.00;99.10;;;;;;4973669;28;20054;-55
2022/04/02 00:20:52;;;;;;;5.38;1.98;;;3.00;99.10;;;;;;4974622;28;20042;-54
2022/04/02 00:23:41;;;;;;;4.30;1.60;;;3.00;99.00;;;;;;4976295;28;20572;-56
2022/04/02 00:26:13;;;;;;;10.25;1.88;;;3.00;99.10;;;;;;4978278;28;20401;-56
2022/04/02 00:28:41;;;;;;;5.90;1.48;;;3.00;99.20;;;;;;4974865;28;20051;-51
2022/04/02 00:31:08;;;;;;;5.57;1.85;;;2.90;99.20;;;;;;4982932;28;20132;-54
2022/04/02 00:33:35;;;;;;;5.65;2.78;;;2.90;99.30;;;;;;4972775;28;20568;-55
2022/04/02 00:36:03;;;;;;;6.75;1.63;;;2.90;99.30;;;;;;4985777;28;20076;-53
2022/04/02 00:38:29;;;;;;;8.40;2.20;;;2.90;99.40;;;;;;4964376;28;20092;-56
2022/04/02 00:40:56;;;;;;;6.80;1.60;;;3.00;99.50;;;;;;4989489;28;20089;-52
2022/04/02 00:43:29;;;;;;;3.92;1.42;;;2.80;99.60;;;;;;4972263;28;20101;-55
2022/04/02 00:45:59;;;;;;;12.53;2.00;;;2.80;99.80;;;;;;4986601;28;20081;-56
2022/04/02 00:48:27;;;;;;;3.67;1.27;;;2.70;99.70;;;;;;4980311;28;20059;-56
2022/04/02 00:50:56;;;;;;;6.40;1.83;;;2.60;99.90;;;;;;4625342;28;10000998;-54
2022/04/02 00:53:23;;;;;;;10.80;1.70;;;2.60;99.90;;;;;;4979394;28;20050;-55
2022/04/02 00:55:50;;;;;;;12.75;2.45;;;2.50;99.90;;;;;;4970879;28;20707;-54
2022/04/02 00:58:17;;;;;;;3.33;1.63;;;2.60;99.90;;;;;;4969133;28;20138;-59
2022/04/02 01:00:44;;;;;;;5.50;1.30;;;2.50;99.90;;;;;;4990162;28;20134;-55
2022/04/02 01:03:11;;;;;;;8.00;2.10;;;2.50;99.90;;;;;;4982926;28;20050;-56
2022/04/02 01:05:39;;;;;;;2.55;1.42;;;2.50;99.90;;;;;;4969828;28;20494;-55
2022/04/02 01:08:06;;;;;;;7.15;1.38;;;2.60;99.90;;;;;;4973205;28;20058;-56
2022/04/02 01:10:33;;;;;;;7.20;2.10;;;2.50;99.90;;;;;;4969665;28;20522;-56
2022/04/02 01:13:00;;;;;;;4.90;1.45;;;2.50;99.90;;;;;;4973400;28;20051;-55
2022/04/02 01:15:27;;;;;;;8.35;1.42;;;2.40;99.90;;;;;;4986705;28;20093;-57
2022/04/02 01:17:54;;;;;;;5.13;1.90;;;2.40;99.90;;;;;;4980512;28;20050;-57
2022/04/02 01:20:20;;;;;;;6.05;2.00;;;2.40;99.90;;;;;;4984613;28;20082;-57
2022/04/02 01:22:48;;;;;;;4.70;1.73;;;2.40;99.90;;;;;;4962918;28;20425;-57
2022/04/02 01:25:15;;;;;;;4.57;1.58;;;2.40;99.90;;;;;;4975692;28;20082;-55
2022/04/02 01:27:43;;;;;;;14.35;2.95;;;2.40;99.90;;;;;;4971122;28;20043;-57
2022/04/02 01:30:11;;;;;;;7.25;2.15;;;2.30;99.90;;;;;;4985539;28;20088;-56
2022/04/02 01:32:37;;;;;;;9.98;1.65;;;2.40;99.90;;;;;;4988731;28;20403;-56
2022/04/02 01:35:05;;;;;;;8.65;2.03;;;2.30;99.90;;;;;;4988623;28;20046;-55
2022/04/02 01:37:31;;;;;;;9.65;2.10;;;2.00;99.90;;;;;;4988383;28;20081;-56
2022/04/02 01:39:58;;;;;;;5.32;1.90;;;2.30;99.90;;;;;;4977596;28;20054;-57
2022/04/02 01:42:26;;;;;;;9.65;1.88;;;2.30;99.90;;;;;;4971983;28;20481;-56
2022/04/02 01:44:53;;;;;;;4.50;2.03;;;2.30;99.90;;;;;;4977096;28;20084;-54
2022/04/02 01:47:20;;;;;;;8.23;2.20;;;2.40;99.90;;;;;;4987345;28;20053;-54
2022/04/02 01:49:47;;;;;;;7.50;2.20;;;2.20;99.90;;;;;;4981572;28;20133;-55
2022/04/02 01:52:15;;;;;;;4.93;1.80;;;2.20;99.90;;;;;;4968828;28;20307;-50
2022/04/02 01:54:43;;;;;;;4.32;2.00;;;2.10;99.90;;;;;;4951909;28;20481;-56
2022/04/02 01:57:10;;;;;;;6.03;2.03;;;2.10;99.90;;;;;;4969427;28;20092;-55
2022/04/02 01:59:39;;;;;;;10.52;2.80;;;2.10;99.90;;;;;;4972774;28;20050;-55
2022/04/02 02:02:07;;;;;;;3.50;2.13;;;2.10;99.90;;;;;;4970537;28;20656;-55
2022/04/02 02:04:34;;;;;;;7.35;2.00;;;2.10;99.90;;;;;;4972561;28;20062;-54
2022/04/02 02:07:01;;;;;;;7.47;3.08;;;2.10;99.90;;;;;;4984954;28;20050;-56
2022/04/02 02:09:28;;;;;;;6.13;1.85;;;2.40;99.90;;;;;;4983979;28;20080;-54
2022/04/02 02:11:54;;;;;;;16.23;3.33;;;2.00;99.90;;;;;;4974105;28;20078;-57
2022/04/02 02:14:21;;;;;;;4.43;1.98;;;2.10;99.90;;;;;;4968613;28;20047;-56
2022/04/02 02:16:48;;;;;;;8.18;3.22;;;2.00;99.90;;;;;;4968756;28;20051;-56
2022/04/02 02:19:15;;;;;;;6.75;2.60;;;2.10;99.90;;;;;;4970004;28;20062;-55
2022/04/02 02:21:42;;;;;;;7.15;2.40;;;2.20;99.90;;;;;;4964801;28;20467;-55
2022/04/02 02:24:09;;;;;;;4.10;2.55;;;2.10;99.90;;;;;;4968869;28;20109;-55
2022/04/02 02:26:36;;;;;;;10.48;2.55;;;2.10;99.90;;;;;;4953707;28;20047;-53
2022/04/02 02:29:06;;;;;;;7.38;2.33;;;2.10;99.90;;;;;;4972954;28;20082;-56
2022/04/02 02:31:34;;;;;;;6.82;2.42;;;2.10;99.90;;;;;;4980908;28;20050;-57
2022/04/02 02:36:46;;;;;;;6.00;3.15;;;2.20;99.90;;;;;;4980928;28;20054;-53
2022/04/02 02:39:13;;;;;;;9.23;3.05;;;2.10;99.90;;;;;;4990176;28;20089;-53
2022/04/02 02:41:40;;;;;;;7.07;2.22;;;2.10;99.90;;;;;;4979168;28;20323;-54
2022/04/02 02:44:06;;;;;;;5.32;3.90;;;2.00;99.90;;;;;;4991898;28;20081;-52
2022/04/02 02:46:34;;;;;;;5.40;3.05;;;2.00;99.90;;;;;;4986202;28;20137;-54
2022/04/02 02:49:01;;;;;;;8.25;3.33;;;2.00;99.90;;;;;;4972533;28;20483;-54
2022/04/02 02:51:28;;;;;;;7.80;3.00;;;2.00;99.90;;;;;;4970294;28;20046;-55
2022/04/02 02:53:55;;;;;;;9.50;3.25;;;2.00;99.90;;;;;;4972537;28;20055;-54
2022/04/02 02:56:22;;;;;;;6.10;3.28;;;1.90;99.90;;;;;;4976723;28;20446;-56
2022/04/02 02:58:48;;;;;;;11.88;3.58;;;1.90;99.90;;;;;;4972093;28;20502;-53
2022/04/02 03:01:16;;;;;;;6.15;2.50;;;2.10;99.90;;;;;;4975866;28;20093;-54
2022/04/02 03:03:42;;;;;;;16.35;3.70;;;2.00;99.90;;;;;;4986585;28;20050;-56
2022/04/02 03:06:09;;;;;;;8.98;3.75;;;2.00;99.90;;;;;;4987043;28;20494;-55
2022/04/02 03:08:36;;;;;;;5.07;3.17;;;2.00;99.90;;;;;;4979363;28;20085;-56
2022/04/02 03:11:03;;;;;;;9.18;3.50;;;2.00;99.90;;;;;;4983499;28;20129;-56
2022/04/02 03:13:29;;;;;;;6.10;3.15;;;1.90;99.90;;;;;;4980841;28;20093;-55
2022/04/02 03:15:56;;;;;;;13.98;4.38;;;1.80;99.90;;;;;;4974514;28;20090;-55
2022/04/02 03:18:23;;;;;;;9.40;3.65;;;1.70;99.90;;;;;;4980037;28;20042;-56
2022/04/02 03:20:50;;;;;;;8.55;4.55;;;1.60;99.90;;;;;;4972357;28;20129;-55
2022/04/02 03:23:16;;;;;;;7.60;3.15;;;1.60;99.90;;;;;;4980003;28;20125;-56
2022/04/02 03:25:44;;;;;;;8.40;3.45;;;1.60;99.90;;;;;;4991150;28;20112;-56
2022/04/02 03:28:10;;;;;;;8.05;3.92;;;1.60;99.90;;;;;;4978484;28;20213;-54
2022/04/02 03:30:38;;;;;;;11.15;3.22;;;1.60;99.90;;;;;;4981171;28;20135;-57
2022/04/02 03:33:04;;;;;;;6.82;3.28;;;1.60;99.90;;;;;;4983489;28;20054;-57
2022/04/02 03:35:31;;;;;;;6.53;4.25;;;1.60;99.90;;;;;;4954330;28;20047;-56
2022/04/02 03:37:58;;;;;;;12.50;3.05;;;1.60;99.90;;;;;;4975052;28;20142;-53
2022/04/02 03:40:25;;;;;;;9.82;4.32;;;1.60;99.90;;;;;;4976537;28;20138;-56
2022/04/02 03:42:53;;;;;;;6.70;3.92;;;1.50;99.90;;;;;;4974767;28;20054;-55
2022/04/02 03:45:20;;;;;;;5.85;3.20;;;1.60;99.90;;;;;;4987986;28;20054;-54
2022/04/02 03:47:47;;;;;;;8.18;3.15;;;1.60;99.90;;;;;;4986587;28;20042;-57
2022/04/02 03:50:14;;;;;;;8.30;3.20;;;1.60;99.90;;;;;;4973474;28;20108;-57
2022/04/02 03:52:41;;;;;;;8.15;3.35;;;1.60;99.90;;;;;;4990613;28;20110;-56
2022/04/02 03:55:08;;;;;;;5.15;3.78;;;1.60;99.90;;;;;;4989293;28;20050;-56
2022/04/02 03:57:35;;;;;;;7.60;3.85;;;1.60;99.90;;;;;;4978617;28;20054;-57
2022/04/02 04:00:06;;;;;;;11.60;3.78;;;1.60;99.90;;;;;;4971084;28;20498;-55
2022/04/02 04:02:34;;;;;;;9.63;5.57;;;1.60;99.90;;;;;;4962411;28;20585;-54
2022/04/02 04:05:01;;;;;;;10.45;3.42;;;1.60;99.90;;;;;;4990473;28;20081;-55
2022/04/02 04:07:28;;;;;;;6.85;3.70;;;1.60;99.90;;;;;;4988951;28;20116;-57
2022/04/02 04:09:54;;;;;;;9.38;3.83;;;1.60;99.90;;;;;;4984323;28;20046;-55
2022/04/02 04:12:21;;;;;;;5.35;3.38;;;1.70;99.90;;;;;;4989577;28;20104;-52
2022/04/02 04:14:48;;;;;;;11.70;4.68;;;1.50;99.90;;;;;;4978133;28;20081;-56
2022/04/02 04:17:15;;;;;;;7.22;3.72;;;1.50;99.90;;;;;;4973106;28;20096;-56
2022/04/02 04:19:42;;;;;;;10.57;3.97;;;1.70;99.90;;;;;;4983780;28;20054;-56
2022/04/02 04:22:10;;;;;;;9.82;4.05;;;1.50;99.90;;;;;;4953624;28;20078;-57
2022/04/02 04:24:36;;;;;;;7.32;4.30;;;1.50;99.90;;;;;;4974492;28;20050;-57
2022/04/02 04:27:04;;;;;;;14.68;5.95;;;1.60;99.90;;;;;;4989733;28;20567;-57
2022/04/02 04:29:31;;;;;;;7.22;3.33;;;1.50;99.90;;;;;;4980923;28;20054;-55
2022/04/02 04:31:57;;;;;;;12.98;3.97;;;1.50;99.90;;;;;;4990198;28;20088;-57
2022/04/02 04:34:24;;;;;;;8.40;3.75;;;1.50;99.90;;;;;;4985794;28;20773;-56
2022/04/02 04:36:51;;;;;;;5.82;3.55;;;1.50;99.90;;;;;;4985202;28;20047;-53
2022/04/02 04:39:18;;;;;;;9.00;4.50;;;1.50;99.90;;;;;;4975155;28;20440;-55
2022/04/02 04:41:44;;;;;;;12.07;4.32;;;1.50;99.90;;;;;;4977133;28;20082;-52
2022/04/02 04:44:11;;;;;;;7.97;4.05;;;1.40;99.90;;;;;;4974283;28;20121;-55
2022/04/02 04:46:39;;;;;;;8.88;4.00;;;1.40;99.90;;;;;;4980689;28;20408;-53
2022/04/02 04:49:06;;;;;;;9.55;4.95;;;1.40;99.90;;;;;;4985563;28;20047;-55
2022/04/02 04:51:33;;;;;;;10.57;3.83;;;1.40;99.90;;;;;;4971750;28;20096;-57
2022/04/02 04:53:59;;;;;;;7.82;4.43;;;1.40;99.90;;;;;;4988169;28;20144;-57
2022/04/02 04:56:31;;;;;;;14.50;5.05;;;1.40;99.90;;;;;;4981432;28;20047;-56
2022/04/02 04:58:58;;;;;;;6.10;4.05;;;1.40;99.90;;;;;;4970004;28;20098;-54
2022/04/02 05:01:24;;;;;;;9.73;4.35;;;1.50;99.90;;;;;;4970153;28;20082;-55
2022/04/02 05:03:51;;;;;;;7.95;4.63;;;1.30;99.90;;;;;;4970137;28;20391;-56
2022/04/02 05:06:19;;;;;;;7.30;3.90;;;1.20;99.90;;;;;;4969129;28;20110;-52
2022/04/02 05:08:46;;;;;;;9.52;4.80;;;1.20;99.90;;;;;;4972413;28;20051;-53
2022/04/02 05:11:13;;;;;;;9.32;5.07;;;1.30;99.90;;;;;;4985182;28;20503;-56
2022/04/02 05:13:41;;;;;;;8.55;4.65;;;1.20;99.90;;;;;;4970898;28;20051;-56
2022/04/02 05:16:08;;;;;;;8.10;5.55;;;1.30;99.90;;;;;;4974028;28;20059;-56
2022/04/02 05:18:35;;;;;;;8.48;3.65;;;1.20;99.90;;;;;;4973219;28;20506;-57
2022/04/02 05:21:02;;;;;;;8.50;4.18;;;1.20;99.90;;;;;;4973453;28;20046;-55
2022/04/02 05:23:30;;;;;;;11.73;5.00;;;1.30;99.90;;;;;;4985270;28;20108;-56
2022/04/02 05:25:58;;;;;;;10.50;4.80;;;1.30;99.90;;;;;;4971240;28;20452;-56
2022/04/02 05:28:25;;;;;;;10.00;4.38;;;1.30;99.90;;;;;;4974955;28;20556;-55
2022/04/02 05:30:51;;;;;;;10.20;5.32;;;1.30;99.90;;;;;;4979978;28;20107;-56
2022/04/02 05:33:19;;;;;;;11.95;4.70;;;1.30;99.90;;;;;;4988857;28;20042;-57
2022/04/02 05:36:06;;;;;;;10.05;5.72;;;1.30;99.90;;;;;;4978284;28;20505;-51
2022/04/02 05:38:33;;;;;;;10.65;5.68;;;1.40;99.90;;;;;;4981773;28;20513;-56
2022/04/02 05:41:00;;;;;;;9.82;4.88;;;1.30;99.90;;;;;;4985233;28;20047;-55
2022/04/02 05:43:27;;;;;;;8.65;4.50;;;1.40;99.90;;;;;;4979108;28;20513;-54
2022/04/02 05:45:54;;;;;;;14.13;4.40;;;1.40;99.90;;;;;;4969414;28;20047;-56
2022/04/02 05:48:21;;;;;;;9.55;4.68;;;1.50;99.90;;;;;;4969366;28;20050;-55
2022/04/02 05:50:48;;;;;;;9.98;5.13;;;1.30;99.90;;;;;;4969093;28;20051;-54
2022/04/02 05:53:15;;;;;;;14.38;5.30;;;1.30;99.90;;;;;;4979832;28;20093;-54
2022/04/02 05:55:42;;;;;;;15.15;5.10;;;1.40;99.90;;;;;;4969259;28;20717;-56
2022/04/02 05:58:12;;;;;;;16.90;4.85;;;1.40;99.90;;;;;;4970665;28;20105;-55
2022/04/02 06:00:39;;;;;;;12.80;5.40;;;1.30;99.90;;;;;;4986024;28;20133;-54
2022/04/02 06:03:06;;;;;;;11.07;4.50;;;1.30;99.90;;;;;;4969274;28;20130;-51
2022/04/02 06:05:33;;;;;;;11.77;5.95;;;1.30;99.90;;;;;;4988133;28;20054;-54
2022/04/02 06:08:00;;;;;;;11.73;5.47;;;1.40;99.90;;;;;;4976885;28;20146;-56
2022/04/02 06:10:26;;;;;;;9.55;4.47;;;1.40;99.90;;;;;;4987724;28;20112;-56
2022/04/02 06:12:53;;;;;;;11.88;4.97;;;1.40;99.90;;;;;;4983873;28;20117;-55
2022/04/02 06:15:21;;;;;;;8.57;5.43;;;1.30;99.90;;;;;;4971711;28;20073;-54
2022/04/02 06:17:48;;;;;;;10.40;5.15;;;1.30;99.90;;;;;;4973002;28;20063;-55
2022/04/02 06:20:15;;;;;;;16.35;5.70;;;1.30;99.90;;;;;;4984070;28;20514;-56
2022/04/02 06:22:42;;;;;;;14.75;6.22;;;1.30;99.90;;;;;;4984453;28;20235;-54
2022/04/02 06:25:09;;;;;;;9.00;4.70;;;1.30;99.90;;;;;;4982139;28;20097;-55
2022/04/02 06:27:43;;;;;;;14.00;6.10;;;1.30;99.90;;;;;;4984686;28;20125;-56
2022/04/02 06:30:15;;;;;;;10.30;5.80;;;1.30;99.90;;;;;;4982689;28;20128;-52
2022/04/02 06:32:41;;;;;;;16.98;6.22;;;1.40;99.90;;;;;;4970582;28;20047;-56
2022/04/02 06:35:09;;;;;;;9.48;5.25;;;1.40;99.90;;;;;;4971658;28;20042;-57
2022/04/02 06:37:37;;;;;;;13.40;5.15;;;1.40;99.90;;;;;;4953999;28;20046;-54
2022/04/02 06:40:04;;;;;;;17.98;6.43;;;1.50;99.90;;;;;;4997648;28;20081;-55
2022/04/02 06:42:31;;;;;;;11.35;6.63;;;1.50;99.90;;;;;;4987223;28;20141;-57
2022/04/02 06:44:58;;;;;;;11.73;5.90;;;1.50;99.90;;;;;;4979632;28;20047;-54
2022/04/02 06:47:29;;;;;;;21.25;6.80;;;1.60;99.90;;;;;;4969078;28;20121;-56
2022/04/02 06:49:56;;;;;;;15.80;5.65;;;1.60;99.90;;;;;;4975007;28;20134;-55
2022/04/02 06:52:24;;;;;;;11.80;5.72;;;1.70;99.90;;;;;;4974307;28;20482;-61
2022/04/02 06:54:50;;;;;;;11.68;5.25;;;1.70;99.90;;;;;;4978730;28;20046;-57
2022/04/02 06:57:20;;;;;;;13.00;5.72;;;1.80;99.90;;;;;;4977369;28;20526;-55
2022/04/02 06:59:47;;;;;;;8.60;5.53;;;1.90;99.90;;;;;;4973084;28;20064;-54
2022/04/02 07:02:15;;;;;;;10.40;4.95;;;1.90;99.90;;;;;;4976038;28;20125;-53
2022/04/02 07:04:42;;;;;;;11.64;4.93;;;2.00;99.90;;;;;;4615709;28;10000679;-55
2022/04/02 07:07:09;;;;;;;10.73;6.72;;;2.10;99.90;;;;;;4974228;28;20042;-56
2022/04/02 07:09:36;;;;;;;27.98;6.90;;;2.20;99.90;;;;;;4974423;28;20129;-56
2022/04/02 07:12:03;;;;;;;13.38;6.00;;;2.20;99.90;;;;;;4976752;28;20084;-55
2022/04/02 07:14:30;;;;;;;16.63;5.28;;;2.20;99.90;;;;;;4977300;28;20093;-60
2022/04/02 07:16:57;;;;;;;14.52;5.63;;;2.30;99.90;;;;;;4981328;28;20089;-55
2022/04/02 07:19:25;;;;;;;13.95;5.75;;;2.30;99.90;;;;;;4983940;28;20458;-55
2022/04/02 07:21:52;;;;;;;16.63;5.03;;;2.50;99.90;;;;;;4978403;28;20058;-56
2022/04/02 07:24:20;;;;;;;19.00;4.97;;;2.60;99.90;;;;;;4972198;28;20042;-58
2022/04/02 07:26:47;;;;;;;9.18;4.90;;;2.70;99.90;;;;;;4976411;28;20139;-56
2022/04/02 07:29:15;;;;;;;13.88;5.90;;;2.80;99.90;;;;;;4968420;28;20117;-56
2022/04/02 07:31:46;;;;;;;11.57;4.63;;;2.80;99.90;;;;;;4970228;28;20063;-58
2022/04/02 07:34:19;;;;;;;7.38;4.38;;;2.80;99.90;;;;;;4971944;28;20078;-56
2022/04/02 07:37:08;;;;;;;9.38;4.38;;;2.90;99.90;;;;;;4976702;28;20050;-56
2022/04/02 07:39:48;;;;;;;9.85;4.25;;;3.00;99.90;;;;;;4970373;28;20050;-57
2022/04/02 07:42:38;;;;;;;13.18;5.22;;;3.10;99.90;;;;;;4977350;28;20585;-58
2022/04/02 07:45:06;;;;;;;9.75;4.13;;;3.10;99.90;;;;;;4964938;28;20120;-54
2022/04/02 07:47:36;;;;;;;7.43;4.65;;;3.20;99.90;;;;;;4975409;28;20125;-52
2022/04/02 07:50:13;;;;;;;13.05;5.85;;;3.30;99.90;;;;;;4947596;28;20046;-54
2022/04/02 07:52:44;;;;;;;19.55;4.72;;;3.40;99.90;;;;;;4976501;28;20112;-58
2022/04/02 07:55:11;;;;;;;13.07;4.20;;;3.40;99.90;;;;;;4969136;28;20105;-55
2022/04/02 07:57:39;;;;;;;8.60;4.28;;;3.50;99.90;;;;;;4977750;28;20093;-54
2022/04/02 08:00:10;;;;;;;9.35;4.47;;;3.50;99.90;;;;;;4985420;28;20560;-56
2022/04/02 08:02:43;;;;;;;8.65;3.97;;;3.50;99.90;;;;;;4976412;28;20043;-54
2022/04/02 08:05:14;;;;;;;6.63;3.25;;;3.50;99.90;;;;;;4980255;28;20054;-54
2022/04/02 08:07:49;;;;;;;13.00;4.28;;;3.60;99.90;;;;;;4977144;28;20047;-54
2022/04/02 08:10:17;;;;;;;8.48;3.55;;;3.70;99.90;;;;;;4974399;28;20799;-55
2022/04/02 08:12:44;;;;;;;11.55;3.88;;;3.70;99.90;;;;;;4976551;28;20046;-56
2022/04/02 08:15:13;;;;;;;12.20;3.85;;;3.80;99.90;;;;;;4979390;28;20085;-56
2022/04/02 08:17:40;;;;;;;7.28;3.70;;;3.80;99.90;;;;;;4976715;28;20503;-56
2022/04/02 08:20:08;;;;;;;8.23;3.28;;;3.90;99.90;;;;;;4975705;28;20083;-56
2022/04/02 08:22:34;;;;;;;9.90;2.95;;;3.90;99.90;;;;;;4977278;28;20074;-53
2022/04/02 08:25:01;;;;;;;7.82;4.63;;;3.90;99.90;;;;;;4975835;28;20061;-54
2022/04/02 08:27:41;;;;;;;7.13;3.65;;;4.00;99.90;;;;;;4959236;28;20046;-56
2022/04/02 08:30:13;;;;;;;7.25;2.83;;;4.10;99.90;;;;;;4972790;28;20050;-57
2022/04/02 08:33:07;;;;;;;8.98;3.20;;;4.20;99.90;;;;;;4990032;28;20073;-56
2022/04/02 08:35:53;;;;;;;6.72;4.05;;;4.20;99.90;;;;;;4981165;28;20116;-57
2022/04/02 08:38:41;;;;;;;6.00;2.55;;;4.30;99.90;;;;;;4970059;28;20088;-58
2022/04/02 08:41:38;;;;;;;11.90;2.90;;;4.40;99.90;;;;;;4967737;28;20050;-57
2022/04/02 08:44:30;;;;;;;5.50;3.08;;;4.50;99.90;;;;;;4967533;28;20134;-58
2022/04/02 08:47:34;;;;;;;9.77;3.28;;;4.60;99.90;;;;;;4968729;28;20113;-58
2022/04/02 08:50:10;;;;;;;9.75;3.15;;;4.70;99.90;;;;;;4980124;28;20148;-57
2022/04/02 08:52:53;;;;;;;6.18;2.20;;;4.80;99.90;;;;;;4981453;28;20054;-55
2022/04/02 08:55:23;;;;;;;8.13;2.60;;;4.80;99.90;;;;;;4966540;28;20089;-56
2022/04/02 08:57:53;;;;;;;14.73;3.13;;;4.90;99.90;;;;;;4966242;28;20051;-56
2022/04/02 09:00:23;;;;;;;15.25;2.72;;;4.90;99.90;;;;;;4974411;28;20498;-57
2022/04/02 09:03:34;;;;;;;4.18;2.65;;;4.90;99.90;;;;;;4970317;28;20109;-58
2022/04/02 09:06:26;;;;;;;7.75;2.38;;;5.00;99.90;;;;;;4975156;28;20053;-55
2022/04/02 09:09:03;;;;;;;4.97;1.77;;;5.10;99.90;;;;;;4976387;28;20157;-56
2022/04/02 09:11:30;;;;;;;6.13;1.80;;;5.20;99.90;;;;;;4986317;28;20046;-57
2022/04/02 09:14:18;;;;;;;5.57;1.75;;;5.40;99.90;;;;;;4977792;28;20574;-58
2022/04/02 09:16:56;;;;;;;6.10;1.77;;;5.40;99.90;;;;;;4967489;28;20143;-54
2022/04/02 09:19:29;;;;;;;6.03;2.08;;;5.60;99.90;;;;;;4965319;28;20081;-56
2022/04/02 09:22:20;;;;;;;6.10;1.55;;;5.70;99.70;;;;;;4966928;28;20141;-55
2022/04/02 09:25:28;;;;;;;5.15;1.45;;;5.80;99.60;;;;;;4971681;28;20544;-53
2022/04/02 09:28:16;;;;;;;6.30;1.70;;;6.20;99.70;;;;;;4984733;28;20104;-53
2022/04/02 09:31:08;;;;;;;6.97;2.20;;;6.70;99.40;;;;;;4983437;28;20136;-54
2022/04/02 09:33:56;;;;;;;4.82;1.90;;;7.30;97.20;;;;;;4967452;28;20050;-58
2022/04/02 09:36:42;;;;;;;11.07;1.85;;;7.70;98.20;;;;;;4976140;28;20141;-59
2022/04/02 09:39:15;;;;;;;3.75;1.90;;;7.90;95.60;;;;;;4981297;28;20046;-56
2022/04/02 09:41:57;;;;;;;4.10;1.83;;;8.00;96.40;;;;;;4974226;28;20133;-57
2022/04/02 09:44:32;;;;;;;7.70;1.60;;;8.00;94.80;;;;;;4970149;28;20078;-56
2022/04/02 09:47:03;;;;;;;7.68;1.52;;;8.00;96.70;;;;;;4979686;28;20500;-57
2022/04/02 09:49:49;;;;;;;5.18;1.55;;;8.40;97.10;;;;;;4986597;28;20145;-54
2022/04/02 09:52:22;;;;;;;3.70;1.40;;;8.60;95.00;;;;;;4968798;28;20484;-57
2022/04/02 09:55:04;;;;;;;4.43;1.10;;;8.60;94.40;;;;;;4981966;28;20086;-55
2022/04/02 09:57:55;;;;;;;8.50;1.80;;;8.40;93.70;;;;;;4971557;28;20615;-54
2022/04/02 10:00:22;;;;;;;5.18;2.03;;;8.50;94.90;;;;;;4976271;28;20133;-57
2022/04/02 10:03:38;;;;;;;10.55;1.58;;;8.50;95.70;;;;;;4952723;28;20310;-57
2022/04/02 10:06:37;;;;;;;5.68;1.42;;;8.40;91.40;;;;;;4918972;28;20054;-55
2022/04/02 10:09:13;;;;;;;7.78;1.45;;;8.30;95.00;;;;;;4947282;28;20058;-57
2022/04/02 10:11:50;;;;;;;2.97;1.27;;;8.40;94.80;;;;;;4978408;28;20573;-58
2022/04/02 10:14:19;;;;;;;2.97;1.20;;;8.50;94.20;;;;;;4966266;28;20047;-55
2022/04/02 10:16:50;;;;;;;4.68;1.45;;;8.50;92.70;;;;;;4973253;28;20501;-58
2022/04/02 10:19:18;;;;;;;8.00;3.20;;;8.30;93.10;;;;;;4984435;28;20050;-55
2022/04/02 10:21:48;;;;;;;2.00;0.63;;;8.10;91.40;;;;;;4986916;28;20062;-57
2022/04/02 10:24:25;;;;;;;2.42;0.90;;;8.00;93.40;;;;;;4966530;28;20595;-57
2022/04/02 10:26:53;;;;;;;5.00;0.95;;;7.90;91.70;;;;;;4971405;28;20059;-57
2022/04/02 10:29:23;;;;;;;3.83;1.63;;;7.80;93.40;;;;;;4985862;28;20141;-58
2022/04/02 10:32:20;;;;;;;2.40;0.82;;;7.60;91.70;;;;;;4974387;28;20086;-57
2022/04/02 10:34:50;;;;;;;4.93;1.10;;;7.50;92.30;;;;;;4956042;28;20149;-56
2022/04/02 10:37:17;;;;;;;3.85;1.45;;;7.30;92.30;;;;;;4977608;28;20046;-56
2022/04/02 10:39:58;;;;;;;4.38;1.13;;;7.30;93.10;;;;;;4966503;28;20130;-57
2022/04/02 10:42:32;;;;;;;5.78;0.93;;;7.30;92.10;;;;;;4967577;28;20815;-58
2022/04/02 10:45:09;;;;;;;5.15;1.73;;;7.40;92.10;;;;;;4985823;28;20100;-57
2022/04/02 10:47:50;;;;;;;2.10;0.73;;;7.60;92.50;;;;;;4981870;28;20295;-57
2022/04/02 10:50:22;;;;;;;4.97;1.42;;;7.80;92.30;;;;;;4970172;28;20074;-56
2022/04/02 10:52:50;;;;;;;4.40;1.73;;;7.70;90.30;;;;;;4975773;28;20066;-58
2022/04/02 10:55:17;;;;;;;1.73;1.17;;;7.60;91.10;;;;;;4989593;28;20536;-56
2022/04/02 10:57:44;;;;;;;9.80;2.17;;;7.50;90.50;;;;;;4988438;28;20054;-56
2022/04/02 11:00:12;;;;;;;1.45;0.70;;;7.40;92.30;;;;;;4989239;28;20129;-56
2022/04/02 11:02:40;;;;;;;3.92;1.38;;;7.40;92.40;;;;;;4979330;28;20065;-54
2022/04/02 11:05:09;;;;;;;6.05;1.63;;;7.30;92.00;;;;;;4976134;28;20050;-57
2022/04/02 11:07:44;;;;;;;10.30;1.45;;;7.30;92.20;;;;;;4981050;28;20134;-56
2022/04/02 11:10:16;;;;;;;4.30;1.17;;;7.30;91.10;;;;;;4986019;28;20061;-54
2022/04/02 11:12:44;;;;;;;3.08;1.45;;;7.20;89.60;;;;;;4984352;28;20108;-58
2022/04/02 11:15:23;;;;;;;6.68;2.80;;;7.20;92.20;;;;;;4973213;28;20572;-57
2022/04/02 11:17:54;;;;;;;11.57;3.67;;;7.10;91.20;;;;;;4973500;28;20058;-57
2022/04/02 11:20:25;;;;;;;5.68;1.50;;;7.20;91.70;;;;;;4967190;28;20063;-56
2022/04/02 11:22:51;;;;;;;5.40;1.60;;;7.10;91.20;;;;;;4984449;28;20141;-56
2022/04/02 11:25:36;;;;;;;3.20;1.20;;;7.40;91.90;;;;;;4974215;28;20062;-57
2022/04/02 11:28:12;;;;;;;5.43;1.60;;;7.50;90.10;;;;;;4973329;28;20046;-57
2022/04/02 11:30:52;;;;;;;2.83;0.90;;;7.70;90.60;;;;;;4978626;28;20478;-57
2022/04/02 11:33:23;;;;;;;4.43;0.95;;;7.90;90.80;;;;;;4974730;28;20077;-55
2022/04/02 11:35:55;;;;;;;2.80;1.20;;;8.20;90.00;;;;;;4973315;28;20058;-57
2022/04/02 11:38:23;;;;;;;5.07;2.38;;;8.30;88.70;;;;;;4972854;28;20723;-56
2022/04/02 11:40:50;;;;;;;2.85;0.82;;;8.30;87.90;;;;;;4964797;28;20152;-56
2022/04/02 11:43:17;;;;;;;3.38;0.88;;;8.30;84.60;;;;;;4983363;28;20133;-57
2022/04/02 11:45:46;;;;;;;2.05;0.88;;;8.20;85.00;;;;;;4979615;28;20050;-62
2022/04/02 11:48:14;;;;;;;4.95;1.45;;;8.20;87.30;;;;;;4983282;28;20137;-56
2022/04/02 11:50:43;;;;;;;3.83;1.05;;;8.30;88.60;;;;;;4977408;28;20057;-57
2022/04/02 11:53:13;;;;;;;3.38;1.00;;;8.30;88.30;;;;;;4967869;28;20042;-58
2022/04/02 11:55:41;;;;;;;2.10;0.80;;;8.40;85.40;;;;;;4978855;28;20055;-55
2022/04/02 11:58:12;;;;;;;2.80;1.30;;;8.40;87.10;;;;;;4967384;28;20767;-54
2022/04/02 12:00:40;;;;;;;3.83;1.00;;;8.50;82.50;;;;;;4951448;28;20194;-56
2022/04/02 12:03:27;;;;;;;4.07;0.80;;;8.40;83.80;;;;;;4970653;28;20138;-54
2022/04/02 12:05:54;;;;;;;4.70;0.75;;;8.40;70.90;;;;;;4989171;28;20054;-57
2022/04/02 12:08:26;;;;;;;3.42;0.90;;;8.30;82.30;;;;;;4987533;28;20046;-57
2022/04/02 12:10:55;;;;;;;5.60;0.90;;;8.50;75.20;;;;;;4979600;28;20050;-57
2022/04/02 12:13:21;;;;;;;4.15;1.08;;;8.60;77.10;;;;;;4951523;28;20482;-58
2022/04/02 12:16:00;;;;;;;3.83;0.77;;;8.80;77.30;;;;;;4975599;28;20057;-57
2022/04/02 12:18:27;;;;;;;2.28;0.88;;;8.90;78.50;;;;;;4987703;28;20092;-53
2022/04/02 12:21:03;;;;;;;4.22;0.80;;;9.00;78.50;;;;;;4980770;28;20146;-56
2022/04/02 12:23:30;;;;;;;2.35;0.80;;;9.20;69.60;;;;;;4952191;28;20168;-56
2022/04/02 12:25:58;;;;;;;3.13;1.75;;;9.30;80.10;;;;;;4967512;28;20054;-58
2022/04/02 12:28:25;;;;;;;4.05;1.00;;;9.40;76.10;;;;;;4968074;28;20078;-58
2022/04/02 12:30:53;;;;;;;1.88;0.90;;;9.20;77.60;;;;;;4977915;28;20196;-53
2022/04/02 12:33:24;;;;;;;3.53;0.70;;;9.10;75.30;;;;;;4980394;28;20130;-57
2022/04/02 12:36:06;;;;;;;7.95;1.55;;;9.10;76.40;;;;;;4978804;28;20089;-56
2022/04/02 12:38:37;;;;;;;1.58;0.80;;;9.10;70.30;;;;;;4986238;28;20287;-56
2022/04/02 12:41:19;;;;;;;4.72;1.00;;;9.00;75.00;;;;;;4969347;28;20059;-56
2022/04/02 12:43:47;;;;;;;3.55;0.73;;;8.80;75.80;;;;;;4972494;28;20400;-55
2022/04/02 12:46:25;;;;;;;4.47;0.82;;;8.80;80.70;;;;;;4975018;28;20090;-56
2022/04/02 12:48:52;;;;;;;3.38;0.93;;;8.90;75.60;;;;;;4985432;28;20082;-56
2022/04/02 12:51:19;;;;;;;2.28;1.02;;;8.90;68.70;;;;;;4974767;28;20051;-54
2022/04/02 12:53:55;;;;;;;1.27;0.60;;;8.90;74.30;;;;;;4973589;28;20054;-56
2022/04/02 12:56:24;;;;;;;1.60;1.05;;;8.80;72.70;;;;;;4974167;28;20046;-57
2022/04/02 12:58:52;;;;;;;6.18;1.30;;;8.80;75.40;;;;;;4977966;28;20541;-56
2022/04/02 13:01:33;;;;;;;3.60;1.00;;;8.80;78.60;;;;;;4969798;28;20497;-58
2022/04/02 13:04:08;;;;;;;1.50;1.00;;;8.80;71.90;;;;;;4969972;28;20676;-55
2022/04/02 13:06:42;;;;;;;2.28;0.93;;;8.70;72.10;;;;;;4975277;28;20475;-53
2022/04/02 13:09:14;;;;;;;1.58;0.73;;;8.70;76.60;;;;;;4970817;28;20483;-54
2022/04/02 13:11:54;;;;;;;3.30;0.98;;;8.80;78.20;;;;;;4975439;28;20074;-53
2022/04/02 13:14:33;;;;;;;2.97;0.70;;;8.80;75.40;;;;;;4970421;28;20142;-54
2022/04/02 13:17:07;;;;;;;11.55;1.23;;;8.80;77.90;;;;;;4973952;28;20054;-56